createdAt,value
2019-05-05T00:02:31.821Z,100505.00
2019-05-05T00:05:11.414Z,100506.00
2019-05-05T00:07:41.091Z,100506.00
2019-05-05T00:10:15.103Z,100519.00
2019-05-05T00:12:55.631Z,100513.00
2019-05-05T00:15:38.407Z,100521.00
2019-05-05T00:18:08.287Z,100513.00
2019-05-05T00:20:37.963Z,100526.00
2019-05-05T00:23:07.672Z,100533.00
2019-05-05T00:25:37.539Z,100522.00
2019-05-05T00:28:07.238Z,100522.00
2019-05-05T00:30:36.934Z,100526.00
2019-05-05T00:33:06.828Z,100530.00
2019-05-05T00:35:36.573Z,100527.00
2019-05-05T00:38:06.475Z,100533.00
2019-05-05T00:40:36.286Z,100532.00
2019-05-05T00:43:06.440Z,100526.00
2019-05-05T00:45:37.235Z,100525.00
2019-05-05T00:48:15.344Z,100524.00
2019-05-05T00:50:45.020Z,100530.00
2019-05-05T00:53:14.815Z,100524.00
2019-05-05T00:55:44.581Z,100527.00
2019-05-05T00:58:14.410Z,100524.00
2019-05-05T01:00:56.607Z,100535.00
2019-05-05T01:03:27.424Z,100532.00
2019-05-05T01:06:04.426Z,100535.00
2019-05-05T01:08:35.253Z,100534.00
2019-05-05T01:11:05.294Z,100554.00
2019-05-05T01:13:35.251Z,100537.00
2019-05-05T01:16:06.330Z,100542.00
2019-05-05T01:18:36.204Z,100551.00
2019-05-05T01:21:06.131Z,100558.00
2019-05-05T01:23:35.887Z,100569.00
2019-05-05T01:26:05.961Z,100563.00
2019-05-05T01:28:35.838Z,100572.00
2019-05-05T01:31:10.199Z,100572.00
2019-05-05T01:34:01.760Z,100592.00
2019-05-05T01:36:31.549Z,100593.00
2019-05-05T01:39:16.701Z,100598.00
2019-05-05T01:41:50.011Z,100603.00
2019-05-05T01:44:19.770Z,100611.00
2019-05-05T01:46:49.481Z,100615.00
2019-05-05T01:49:19.362Z,100621.00
2019-05-05T01:51:49.046Z,100629.00
2019-05-05T01:54:18.727Z,100621.00
2019-05-05T01:56:48.871Z,100627.00
2019-05-05T01:59:18.700Z,100635.00
2019-05-05T02:01:48.476Z,100630.00
2019-05-05T02:04:18.439Z,100639.00
2019-05-05T02:06:48.111Z,100633.00
2019-05-05T02:09:17.809Z,100641.00
2019-05-05T02:11:47.592Z,100643.00
2019-05-05T02:14:17.444Z,100635.00
2019-05-05T02:16:47.118Z,100640.00
2019-05-05T02:19:16.999Z,100660.00
2019-05-05T02:21:47.120Z,100646.00
2019-05-05T02:24:16.832Z,100640.00
2019-05-05T02:26:46.835Z,100647.00
2019-05-05T02:29:38.024Z,100648.00
2019-05-05T02:32:25.668Z,100655.00
2019-05-05T02:34:58.497Z,100653.00
2019-05-05T02:37:28.533Z,100653.00
2019-05-05T02:40:03.299Z,100653.00
2019-05-05T02:42:30.368Z,100658.00
2019-05-05T02:45:05.539Z,100658.00
2019-05-05T02:48:15.366Z,100656.00
2019-05-05T02:51:02.228Z,100672.00
2019-05-05T02:53:36.968Z,100675.00
2019-05-05T02:56:11.833Z,100688.00
2019-05-05T02:58:44.395Z,100686.00
2019-05-05T03:01:27.971Z,100691.00
2019-05-05T03:04:00.473Z,100680.00
2019-05-05T03:06:30.393Z,100689.00
2019-05-05T03:09:01.498Z,100691.00
2019-05-05T03:11:34.400Z,100692.00
2019-05-05T03:14:08.783Z,100693.00
2019-05-05T03:16:40.933Z,100693.00
2019-05-05T03:19:11.537Z,100690.00
2019-05-05T03:21:44.034Z,100704.00
2019-05-05T03:24:14.360Z,100702.00
2019-05-05T03:26:44.631Z,100713.00
2019-05-05T03:29:18.931Z,100713.00
2019-05-05T03:31:49.921Z,100720.00
2019-05-05T03:34:23.802Z,100716.00
2019-05-05T03:36:55.031Z,100724.00
2019-05-05T03:39:27.068Z,100717.00
2019-05-05T03:42:14.229Z,100728.00
2019-05-05T03:44:49.196Z,100731.00
2019-05-05T03:47:19.583Z,100737.00
2019-05-05T03:49:49.735Z,100742.00
2019-05-05T03:52:20.288Z,100744.00
2019-05-05T03:54:50.222Z,100745.00
2019-05-05T03:57:21.074Z,100751.00
2019-05-05T03:59:51.038Z,100755.00
2019-05-05T04:02:26.644Z,100762.00
2019-05-05T04:04:57.904Z,100747.00
2019-05-05T04:07:27.581Z,100753.00
2019-05-05T04:09:57.540Z,100752.00
2019-05-05T04:12:27.230Z,100745.00
2019-05-05T04:14:57.450Z,100760.00
2019-05-05T04:17:53.636Z,100765.00
2019-05-05T04:20:44.204Z,100767.00
2019-05-05T04:23:14.272Z,100769.00
2019-05-05T04:25:44.069Z,100796.00
2019-05-05T04:28:13.774Z,100776.00
2019-05-05T04:30:44.493Z,100772.00
2019-05-05T04:33:14.472Z,100776.00
2019-05-05T04:35:44.569Z,100787.00
2019-05-05T04:38:14.733Z,100781.00
2019-05-05T04:40:44.516Z,100807.00
2019-05-05T04:43:14.516Z,100779.00
2019-05-05T04:45:44.240Z,100789.00
2019-05-05T04:48:24.253Z,100784.00
2019-05-05T04:51:13.750Z,100782.00
2019-05-05T04:54:01.230Z,100797.00
2019-05-05T04:56:31.315Z,100786.00
2019-05-05T04:59:01.012Z,100787.00
2019-05-05T05:01:30.727Z,100794.00
2019-05-05T05:04:07.451Z,100786.00
2019-05-05T05:06:41.000Z,100799.00
2019-05-05T05:09:10.711Z,100797.00
2019-05-05T05:11:40.382Z,100796.00
2019-05-05T05:14:10.648Z,100797.00
2019-05-05T05:16:40.314Z,100825.00
2019-05-05T05:19:10.018Z,100866.00
2019-05-05T05:21:39.916Z,100866.00
2019-05-05T05:24:09.587Z,100866.00
2019-05-05T05:26:39.344Z,100866.00
2019-05-05T05:29:09.056Z,100865.00
2019-05-05T05:31:38.774Z,100870.00
2019-05-05T05:34:08.798Z,100878.00
2019-05-05T05:36:38.541Z,100876.00
2019-05-05T05:39:26.123Z,100883.00
2019-05-05T05:41:55.787Z,100876.00
2019-05-05T05:44:44.455Z,100885.00
2019-05-05T05:47:22.111Z,100888.00
2019-05-05T05:50:01.021Z,100891.00
2019-05-05T05:52:30.730Z,100896.00
2019-05-05T05:55:00.453Z,100896.00
2019-05-05T05:57:30.114Z,100906.00
2019-05-05T05:59:59.810Z,100900.00
2019-05-05T06:02:29.470Z,100906.00
2019-05-05T06:04:59.144Z,100914.00
2019-05-05T06:07:28.837Z,100910.00
2019-05-05T06:09:58.530Z,100917.00
2019-05-05T06:12:28.206Z,100918.00
2019-05-05T06:14:57.919Z,100917.00
2019-05-05T06:17:27.920Z,100924.00
2019-05-05T06:19:57.842Z,100917.00
2019-05-05T06:22:31.245Z,100918.00
2019-05-05T06:24:58.975Z,100926.00
2019-05-05T06:27:28.661Z,100930.00
2019-05-05T06:29:58.347Z,100932.00
2019-05-05T06:32:28.072Z,100936.00
2019-05-05T06:34:58.079Z,100938.00
2019-05-05T06:37:27.786Z,100938.00
2019-05-05T06:40:00.428Z,100934.00
2019-05-05T06:42:43.680Z,100936.00
2019-05-05T06:45:26.964Z,100952.00
2019-05-05T06:47:56.664Z,100957.00
2019-05-05T06:50:26.357Z,100952.00
2019-05-05T06:52:56.100Z,100947.00
2019-05-05T06:55:25.770Z,100953.00
2019-05-05T06:57:55.527Z,100960.00
2019-05-05T07:00:25.251Z,100959.00
2019-05-05T07:02:54.925Z,100955.00
2019-05-05T07:05:24.625Z,100962.00
2019-05-05T07:07:54.387Z,100961.00
2019-05-05T07:10:24.512Z,100967.00
2019-05-05T07:12:54.445Z,100963.00
2019-05-05T07:15:24.116Z,100959.00
2019-05-05T07:17:53.813Z,100956.00
2019-05-05T07:20:24.138Z,100950.00
2019-05-05T07:23:01.403Z,100958.00
2019-05-05T07:25:25.661Z,100950.00
2019-05-05T07:27:55.450Z,100962.00
2019-05-05T07:30:25.139Z,100962.00
2019-05-05T07:32:54.866Z,100948.00
2019-05-05T07:35:53.334Z,100948.00
2019-05-05T07:38:13.793Z,100958.00
2019-05-05T07:40:43.933Z,100961.00
2019-05-05T07:43:14.642Z,100963.00
2019-05-05T07:45:44.709Z,100960.00
2019-05-05T07:48:14.497Z,100960.00
2019-05-05T07:50:58.651Z,100957.00
2019-05-05T07:53:17.976Z,100967.00
2019-05-05T07:55:47.302Z,100964.00
2019-05-05T07:58:16.989Z,100977.00
2019-05-05T08:00:46.709Z,100968.00
2019-05-05T08:03:16.395Z,100977.00
2019-05-05T08:05:46.128Z,100973.00
2019-05-05T08:08:15.858Z,100980.00
2019-05-05T08:10:45.543Z,100975.00
2019-05-05T08:13:15.270Z,100974.00
2019-05-05T08:15:56.797Z,100977.00
2019-05-05T08:18:38.385Z,100970.00
2019-05-05T08:21:08.195Z,100985.00
2019-05-05T08:23:44.702Z,100988.00
2019-05-05T08:26:20.915Z,100984.00
2019-05-05T08:28:54.882Z,100982.00
2019-05-05T08:31:30.317Z,100982.00
2019-05-05T08:34:00.003Z,100985.00
2019-05-05T08:36:29.669Z,100972.00
2019-05-05T08:38:59.404Z,100980.00
2019-05-05T08:41:29.092Z,100986.00
2019-05-05T08:43:58.749Z,100998.00
2019-05-05T08:46:28.509Z,100947.00
2019-05-05T08:48:58.199Z,100990.00
2019-05-05T08:51:27.858Z,101005.00
2019-05-05T08:53:57.587Z,100999.00
2019-05-05T08:56:27.284Z,100999.00
2019-05-05T08:58:56.972Z,100994.00
2019-05-05T09:01:26.742Z,101000.00
2019-05-05T09:03:56.503Z,100998.00
2019-05-05T09:06:26.169Z,100997.00
2019-05-05T09:08:55.902Z,100993.00
2019-05-05T09:11:25.599Z,101001.00
2019-05-05T09:13:55.356Z,101006.00
2019-05-05T09:16:25.112Z,101005.00
2019-05-05T09:19:01.409Z,101003.00
2019-05-05T09:21:31.193Z,101002.00
2019-05-05T09:24:17.096Z,101002.00
2019-05-05T09:26:54.292Z,101009.00
2019-05-05T09:29:27.165Z,101012.00
2019-05-05T09:32:16.719Z,101004.00
2019-05-05T09:34:46.711Z,101005.00
2019-05-05T09:37:16.713Z,101010.00
2019-05-05T09:39:46.842Z,101008.00
2019-05-05T09:42:16.857Z,101009.00
2019-05-05T09:44:46.967Z,100998.00
2019-05-05T09:47:17.007Z,101009.00
2019-05-05T09:49:46.990Z,101013.00
2019-05-05T09:52:17.068Z,101006.00
2019-05-05T09:54:47.199Z,101001.00
2019-05-05T09:57:17.209Z,101007.00
2019-05-05T09:59:47.190Z,101011.00
2019-05-05T10:02:17.228Z,101000.00
2019-05-05T10:04:47.132Z,101008.00
2019-05-05T10:07:17.081Z,101007.00
2019-05-05T10:09:47.068Z,101006.00
2019-05-05T10:12:17.077Z,101006.00
2019-05-05T10:14:46.997Z,101015.00
2019-05-05T10:17:16.989Z,101010.00
2019-05-05T10:19:46.926Z,101012.00
2019-05-05T10:22:16.807Z,101007.00
2019-05-05T10:24:55.244Z,101005.00
2019-05-05T10:27:24.325Z,101005.00
2019-05-05T10:29:54.795Z,101009.00
2019-05-05T10:32:24.886Z,101009.00
2019-05-05T10:35:04.457Z,101011.00
2019-05-05T10:37:34.844Z,101013.00
2019-05-05T10:40:05.684Z,101012.00
2019-05-05T10:42:50.797Z,101012.00
2019-05-05T10:45:24.493Z,101016.00
2019-05-05T10:47:54.987Z,101017.00
2019-05-05T10:50:25.517Z,101015.00
2019-05-05T10:52:55.679Z,101023.00
2019-05-05T10:55:25.749Z,101018.00
2019-05-05T10:58:14.828Z,101014.00
2019-05-05T11:00:49.606Z,101019.00
2019-05-05T11:03:19.692Z,101006.00
2019-05-05T11:05:49.766Z,101005.00
2019-05-05T11:08:20.072Z,100993.00
2019-05-05T11:10:50.042Z,100997.00
2019-05-05T11:13:20.149Z,101001.00
2019-05-05T11:15:50.375Z,100998.00
2019-05-05T11:18:23.650Z,101012.00
2019-05-05T11:20:54.887Z,101007.00
2019-05-05T11:23:25.024Z,101016.00
2019-05-05T11:25:55.262Z,101008.00
2019-05-05T11:28:25.279Z,101010.00
2019-05-05T11:30:55.401Z,101006.00
2019-05-05T11:33:40.982Z,101010.00
2019-05-05T11:36:30.274Z,101007.00
2019-05-05T11:39:00.199Z,101009.00
2019-05-05T11:41:30.414Z,101017.00
2019-05-05T11:44:00.353Z,101008.00
2019-05-05T11:46:30.757Z,101018.00
2019-05-05T11:49:00.653Z,101013.00
2019-05-05T11:51:30.689Z,101008.00
2019-05-05T11:54:00.993Z,100979.00
2019-05-05T11:56:30.976Z,101017.00
2019-05-05T11:59:00.863Z,101023.00
2019-05-05T12:01:30.890Z,101026.00
2019-05-05T12:04:04.094Z,101028.00
2019-05-05T12:06:34.140Z,101029.00
2019-05-05T12:09:08.128Z,101026.00
2019-05-05T12:11:38.083Z,101027.00
2019-05-05T12:14:09.706Z,101035.00
2019-05-05T12:16:39.873Z,101032.00
2019-05-05T12:19:13.716Z,101034.00
2019-05-05T12:21:44.275Z,101031.00
2019-05-05T12:24:24.771Z,101036.00
2019-05-05T12:27:16.117Z,101037.00
2019-05-05T12:29:51.267Z,101033.00
2019-05-05T12:32:21.284Z,101038.00
2019-05-05T12:34:51.393Z,101026.00
2019-05-05T12:37:23.563Z,101016.00
2019-05-05T12:39:54.549Z,101022.00
2019-05-05T12:42:24.854Z,100978.00
2019-05-05T12:45:04.407Z,100996.00
2019-05-05T12:47:52.096Z,101015.00
2019-05-05T12:50:24.498Z,101021.00
2019-05-05T12:52:54.894Z,101026.00
2019-05-05T12:55:38.331Z,100979.00
2019-05-05T12:57:57.261Z,101019.00
2019-05-05T13:00:27.457Z,101014.00
2019-05-05T13:02:57.328Z,101029.00
2019-05-05T13:05:27.009Z,101017.00
2019-05-05T13:07:56.811Z,101025.00
2019-05-05T13:10:26.822Z,101023.00
2019-05-05T13:12:56.509Z,101022.00
2019-05-05T13:15:26.374Z,101015.00
2019-05-05T13:18:15.476Z,101020.00
2019-05-05T13:20:53.744Z,101019.00
2019-05-05T13:23:31.447Z,101021.00
2019-05-05T13:26:05.795Z,101013.00
2019-05-05T13:28:35.607Z,101010.00
2019-05-05T13:31:05.391Z,101017.00
2019-05-05T13:33:37.227Z,101012.00
2019-05-05T13:36:07.160Z,101005.00
2019-05-05T13:38:36.826Z,101013.00
2019-05-05T13:41:25.813Z,101017.00
2019-05-05T13:43:57.144Z,101016.00
2019-05-05T13:46:28.951Z,101024.00
2019-05-05T13:49:35.946Z,101013.00
2019-05-05T13:52:06.090Z,100987.00
2019-05-05T13:54:35.783Z,101018.00
2019-05-05T13:57:05.569Z,101011.00
2019-05-05T13:59:35.232Z,101020.00
2019-05-05T14:02:05.086Z,101018.00
2019-05-05T14:04:35.054Z,101022.00
2019-05-05T14:07:05.019Z,101023.00
2019-05-05T14:09:34.803Z,101019.00
2019-05-05T14:12:04.548Z,100978.00
2019-05-05T14:14:34.312Z,101002.00
2019-05-05T14:17:04.331Z,101003.00
2019-05-05T14:19:34.281Z,101018.00
2019-05-05T14:22:04.573Z,100995.00
2019-05-05T14:24:47.807Z,101019.00
2019-05-05T14:27:18.012Z,101001.00
2019-05-05T14:29:56.655Z,101022.00
2019-05-05T14:32:30.228Z,100998.00
2019-05-05T14:35:14.269Z,101020.00
2019-05-05T14:37:47.507Z,100996.00
2019-05-05T14:40:17.867Z,100999.00
2019-05-05T14:42:47.878Z,101011.00
2019-05-05T14:45:17.961Z,101004.00
2019-05-05T14:47:47.851Z,101007.00
2019-05-05T14:50:18.310Z,101028.00
2019-05-05T14:52:48.240Z,101026.00
2019-05-05T14:55:18.227Z,101021.00
2019-05-05T14:57:48.126Z,101019.00
2019-05-05T15:00:21.122Z,101022.00
2019-05-05T15:02:50.778Z,101017.00
2019-05-05T15:05:41.295Z,101021.00
2019-05-05T15:08:19.096Z,101027.00
2019-05-05T15:11:06.832Z,101020.00
2019-05-05T15:13:36.639Z,101019.00
2019-05-05T15:16:09.906Z,101028.00
2019-05-05T15:18:38.233Z,101027.00
2019-05-05T15:21:07.893Z,101035.00
2019-05-05T15:23:37.616Z,101025.00
2019-05-05T15:26:08.111Z,101021.00
2019-05-05T15:28:37.875Z,101027.00
2019-05-05T15:31:07.626Z,101020.00
2019-05-05T15:33:37.286Z,101021.00
2019-05-05T15:36:07.011Z,101025.00
2019-05-05T15:38:36.757Z,101019.00
2019-05-05T15:41:06.756Z,101011.00
2019-05-05T15:43:36.726Z,101018.00
2019-05-05T15:46:06.569Z,101015.00
2019-05-05T15:48:36.584Z,101009.00
2019-05-05T15:51:06.344Z,101021.00
2019-05-05T15:53:36.053Z,101014.00
2019-05-05T15:56:05.784Z,101014.00
2019-05-05T15:58:35.447Z,101017.00
2019-05-05T16:01:05.476Z,101012.00
2019-05-05T16:03:35.205Z,101016.00
2019-05-05T16:06:04.885Z,101008.00
2019-05-05T16:08:34.594Z,101011.00
2019-05-05T16:11:04.286Z,101013.00
2019-05-05T16:13:35.354Z,101017.00
2019-05-05T16:16:16.503Z,101022.00
2019-05-05T16:19:05.762Z,101021.00
2019-05-05T16:21:38.375Z,100849.00
2019-05-05T16:24:16.952Z,101011.00
2019-05-05T16:26:46.622Z,101020.00
2019-05-05T16:29:16.313Z,101011.00
2019-05-05T16:31:46.030Z,101023.00
2019-05-05T16:34:15.689Z,101021.00
2019-05-05T16:36:45.601Z,101019.00
2019-05-05T16:39:16.400Z,101014.00
2019-05-05T16:41:46.257Z,101015.00
2019-05-05T16:44:15.948Z,101008.00
2019-05-05T16:46:45.784Z,101017.00
2019-05-05T16:49:15.422Z,101023.00
2019-05-05T16:51:51.785Z,101017.00
2019-05-05T16:54:27.783Z,101017.00
2019-05-05T16:56:57.542Z,101022.00
2019-05-05T16:59:27.335Z,101011.00
2019-05-05T17:01:57.057Z,101012.00
2019-05-05T17:04:26.718Z,101014.00
2019-05-05T17:09:24.086Z,101017.00
2019-05-05T17:12:09.412Z,101007.00
2019-05-05T17:14:49.769Z,101009.00
2019-05-05T17:17:33.835Z,101003.00
2019-05-05T17:20:06.867Z,101017.00
2019-05-05T17:22:40.409Z,101007.00
2019-05-05T17:25:11.093Z,101013.00
2019-05-05T17:27:48.500Z,101011.00
2019-05-05T17:30:13.155Z,101004.00
2019-05-05T17:32:43.732Z,101008.00
2019-05-05T17:35:14.364Z,101009.00
2019-05-05T17:37:44.363Z,101011.00
2019-05-05T17:40:33.653Z,101011.00
2019-05-05T17:43:27.598Z,101023.00
2019-05-05T17:46:19.211Z,101014.00
2019-05-05T17:48:53.941Z,100972.00
2019-05-05T17:51:31.506Z,100967.00
2019-05-05T17:54:29.289Z,100975.00
2019-05-05T17:56:59.290Z,100976.00
2019-05-05T17:59:29.021Z,100971.00
2019-05-05T18:01:58.690Z,101025.00
2019-05-05T18:04:28.442Z,101029.00
2019-05-05T18:07:05.009Z,101027.00
2019-05-05T18:09:53.867Z,101029.00
2019-05-05T18:12:33.835Z,101027.00
2019-05-05T18:15:04.527Z,101031.00
2019-05-05T18:17:34.225Z,101032.00
2019-05-05T18:20:04.490Z,101027.00
2019-05-05T18:22:34.379Z,101039.00
2019-05-05T18:25:04.421Z,101034.00
2019-05-05T18:27:34.496Z,101030.00
2019-05-05T18:30:04.396Z,100976.00
2019-05-05T18:32:34.287Z,100978.00
2019-05-05T18:35:06.639Z,100975.00
2019-05-05T18:37:35.527Z,100981.00
2019-05-05T18:40:05.754Z,100976.00
2019-05-05T18:42:35.737Z,101040.00
2019-05-05T18:45:09.516Z,101037.00
2019-05-05T18:47:39.262Z,101044.00
2019-05-05T18:50:09.355Z,101044.00
2019-05-05T18:52:39.088Z,101049.00
2019-05-05T18:55:08.890Z,101044.00
2019-05-05T18:57:38.647Z,101060.00
2019-05-05T19:00:13.813Z,101058.00
2019-05-05T19:02:50.716Z,101064.00
2019-05-05T19:05:27.461Z,101061.00
2019-05-05T19:08:25.101Z,101058.00
2019-05-05T19:10:54.790Z,101063.00
2019-05-05T19:13:24.671Z,101059.00
2019-05-05T19:15:54.454Z,101060.00
2019-05-05T19:18:24.579Z,101057.00
2019-05-05T19:21:19.307Z,101063.00
2019-05-05T19:23:49.034Z,101063.00
2019-05-05T19:26:18.689Z,101060.00
2019-05-05T19:28:50.179Z,101060.00
2019-05-05T19:31:19.818Z,101056.00
2019-05-05T19:33:49.509Z,101048.00
2019-05-05T19:36:19.162Z,101064.00
2019-05-05T19:38:48.893Z,101057.00
2019-05-05T19:41:18.681Z,101054.00
2019-05-05T19:43:55.045Z,101058.00
2019-05-05T19:46:31.804Z,101050.00
2019-05-05T19:49:17.455Z,101046.00
2019-05-05T19:51:47.778Z,101051.00
2019-05-05T19:54:17.475Z,101051.00
2019-05-05T19:56:47.787Z,101048.00
2019-05-05T19:59:17.513Z,101050.00
2019-05-05T20:01:47.220Z,101046.00
2019-05-05T20:04:16.998Z,101047.00
2019-05-05T20:06:46.719Z,101043.00
2019-05-05T20:09:16.399Z,101044.00
2019-05-05T20:11:46.082Z,101043.00
2019-05-05T20:14:15.763Z,101034.00
2019-05-05T20:17:04.641Z,101043.00
2019-05-05T20:19:43.991Z,101047.00
2019-05-05T20:22:14.619Z,101057.00
2019-05-05T20:24:44.609Z,101056.00
2019-05-05T20:27:14.768Z,101047.00
2019-05-05T20:29:44.714Z,101047.00
2019-05-05T20:32:16.027Z,101049.00
2019-05-05T20:34:54.393Z,101047.00
2019-05-05T20:37:28.617Z,101047.00
2019-05-05T20:39:59.956Z,101048.00
2019-05-05T20:42:29.672Z,101051.00
2019-05-05T20:44:59.369Z,101050.00
2019-05-05T20:47:29.053Z,101047.00
2019-05-05T20:49:58.746Z,101044.00
2019-05-05T20:52:28.485Z,101038.00
2019-05-05T20:54:58.172Z,101044.00
2019-05-05T20:57:27.884Z,101042.00
2019-05-05T21:02:45.315Z,101042.00
2019-05-05T21:05:15.040Z,101033.00
2019-05-05T21:07:44.797Z,101042.00
2019-05-05T21:10:14.832Z,101029.00
2019-05-05T21:12:45.560Z,101039.00
2019-05-05T21:15:15.682Z,101031.00
2019-05-05T21:17:45.348Z,101026.00
2019-05-05T21:20:15.559Z,101022.00
2019-05-05T21:22:54.116Z,101036.00
2019-05-05T21:25:26.750Z,101025.00
2019-05-05T21:27:56.522Z,101032.00
2019-05-05T21:30:26.557Z,101029.00
2019-05-05T21:32:56.344Z,101034.00
2019-05-05T21:35:26.093Z,101027.00
2019-05-05T21:37:55.792Z,101029.00
2019-05-05T21:40:26.378Z,101027.00
2019-05-05T21:42:56.144Z,101025.00
2019-05-05T21:45:25.917Z,101024.00
2019-05-05T21:47:55.649Z,101033.00
2019-05-05T21:50:31.311Z,101022.00
2019-05-05T21:53:40.007Z,101036.00
2019-05-05T21:56:29.610Z,101037.00
2019-05-05T21:58:59.954Z,101031.00
2019-05-05T22:01:30.973Z,101037.00
2019-05-05T22:04:00.730Z,101032.00
2019-05-05T22:06:30.546Z,101039.00
2019-05-05T22:09:00.258Z,101029.00
2019-05-05T22:11:29.976Z,101032.00
2019-05-05T22:13:59.735Z,101030.00
2019-05-05T22:16:29.431Z,101038.00
2019-05-05T22:18:59.198Z,101031.00
2019-05-05T22:21:39.717Z,101034.00
2019-05-05T22:24:15.729Z,101039.00
2019-05-05T22:26:45.167Z,101034.00
2019-05-05T22:29:17.069Z,101027.00
2019-05-05T22:31:46.729Z,101034.00
2019-05-05T22:34:16.495Z,101029.00
2019-05-05T22:36:46.295Z,101029.00
2019-05-05T22:39:17.028Z,101026.00
2019-05-05T22:41:47.074Z,101025.00
2019-05-05T22:44:17.125Z,101022.00
2019-05-05T22:46:47.080Z,101023.00
2019-05-05T22:49:16.772Z,101022.00
2019-05-05T22:51:46.459Z,101029.00
2019-05-05T22:54:16.440Z,101025.00
2019-05-05T22:56:46.442Z,101031.00
2019-05-05T22:59:16.147Z,101020.00
2019-05-05T23:01:45.878Z,101026.00
2019-05-05T23:04:28.594Z,101028.00
2019-05-05T23:07:05.578Z,101026.00
2019-05-05T23:09:35.356Z,101036.00
2019-05-05T23:12:05.093Z,101034.00
2019-05-05T23:14:35.108Z,101026.00
2019-05-05T23:17:26.993Z,101033.00
2019-05-05T23:20:16.349Z,101033.00
2019-05-05T23:23:02.187Z,101036.00
2019-05-05T23:25:36.585Z,101026.00
2019-05-05T23:28:06.306Z,101037.00
2019-05-05T23:30:41.436Z,101033.00
2019-05-05T23:33:07.521Z,101037.00
2019-05-05T23:35:37.401Z,101030.00
2019-05-05T23:38:07.110Z,101046.00
2019-05-05T23:40:37.169Z,101031.00
2019-05-05T23:43:06.873Z,101029.00
2019-05-05T23:45:36.617Z,101034.00
2019-05-05T23:48:06.330Z,101028.00
2019-05-05T23:50:36.133Z,101029.00
2019-05-05T23:53:05.876Z,101027.00
2019-05-05T23:55:35.544Z,101035.00
2019-05-05T23:58:05.279Z,101031.00
